Time;durP1;ratioP1;P1;durP2;ratioP2;P2;SDS_P1;SDS_P2;PMS_P1;PMS_P2;Temp;Humidity;BMP_temperature;BMP_pressure;BME280_temperature;BME280_humidity;BME280_pressure;Samples;Min_cycle;Max_cycle;Signal;HPM_P1;HPM_P2
2022/07/08 00:00:40;;;;;;;8.55;6.75;;;28.90;99.90;;;;;;5011713;28;20480;-44
2022/07/08 00:03:06;;;;;;;9.20;6.10;;;28.90;99.90;;;;;;5011241;28;20042;-45
2022/07/08 00:05:32;;;;;;;7.22;6.35;;;28.80;99.90;;;;;;5011387;28;20033;-45
2022/07/08 00:07:58;;;;;;;9.73;6.15;;;28.90;99.90;;;;;;5011367;28;20036;-45
2022/07/08 00:10:24;;;;;;;7.22;5.75;;;28.90;99.90;;;;;;5011392;28;20029;-45
2022/07/08 00:12:51;;;;;;;8.48;6.50;;;28.90;99.90;;;;;;5011642;28;20053;-45
2022/07/08 00:15:17;;;;;;;7.30;6.07;;;28.90;99.90;;;;;;5011394;28;20435;-45
2022/07/08 00:17:42;;;;;;;8.13;6.07;;;28.80;99.90;;;;;;5011272;28;20014;-45
2022/07/08 00:20:09;;;;;;;9.13;6.85;;;28.90;99.90;;;;;;5011161;28;20030;-45
2022/07/08 00:22:36;;;;;;;7.43;6.22;;;28.80;99.90;;;;;;5011619;28;20204;-45
2022/07/08 00:25:02;;;;;;;8.30;6.50;;;28.80;99.90;;;;;;5015089;28;20048;-45
2022/07/08 00:27:28;;;;;;;7.57;6.53;;;28.80;99.90;;;;;;5015029;28;20038;-46
2022/07/08 00:29:54;;;;;;;7.00;5.95;;;28.80;99.90;;;;;;5015264;28;20503;-45
2022/07/08 00:32:19;;;;;;;8.57;6.13;;;28.80;99.90;;;;;;5015200;28;20109;-45
2022/07/08 00:34:45;;;;;;;7.40;5.72;;;28.80;99.90;;;;;;5014923;28;20022;-45
2022/07/08 00:37:11;;;;;;;7.95;6.43;;;28.80;99.90;;;;;;5014927;28;20018;-45
2022/07/08 00:39:37;;;;;;;7.50;5.85;;;28.80;99.90;;;;;;5014769;28;20487;-45
2022/07/08 00:42:04;;;;;;;7.65;6.18;;;28.80;99.90;;;;;;5014820;28;20087;-45
2022/07/08 00:44:30;;;;;;;8.23;6.25;;;28.80;99.90;;;;;;5014755;28;20024;-45
2022/07/08 00:46:56;;;;;;;10.82;6.80;;;28.80;99.90;;;;;;5014674;28;20030;-45
2022/07/08 00:49:22;;;;;;;7.15;6.07;;;28.80;99.90;;;;;;5014811;28;20034;-45
2022/07/08 00:51:48;;;;;;;6.75;6.05;;;28.80;99.90;;;;;;5014450;28;20109;-45
2022/07/08 00:54:16;;;;;;;7.60;5.90;;;28.80;99.90;;;;;;5014461;28;20026;-45
2022/07/08 00:56:43;;;;;;;7.00;5.53;;;28.80;99.90;;;;;;5014617;28;20018;-45
2022/07/08 00:59:09;;;;;;;7.80;6.32;;;28.80;99.90;;;;;;5015043;28;20117;-45
2022/07/08 01:01:35;;;;;;;7.65;6.00;;;28.80;99.90;;;;;;4996777;28;20064;-45
2022/07/08 01:04:02;;;;;;;7.80;6.07;;;28.80;99.90;;;;;;5014520;28;20029;-45
2022/07/08 01:06:28;;;;;;;6.63;5.88;;;28.80;99.90;;;;;;5014477;28;20084;-45
2022/07/08 01:08:54;;;;;;;7.90;5.93;;;28.80;99.90;;;;;;5014479;28;20045;-45
2022/07/08 01:11:20;;;;;;;8.10;5.63;;;28.80;99.90;;;;;;5014456;28;20022;-45
2022/07/08 01:13:47;;;;;;;6.93;6.18;;;28.80;99.90;;;;;;5014139;28;20061;-45
2022/07/08 01:16:13;;;;;;;7.28;6.13;;;28.80;99.90;;;;;;5014231;28;20491;-45
2022/07/08 01:18:40;;;;;;;6.40;5.10;;;28.80;99.90;;;;;;5014101;28;20112;-45
2022/07/08 01:21:07;;;;;;;7.22;5.57;;;28.80;99.90;;;;;;5014177;28;20545;-45
2022/07/08 01:23:33;;;;;;;7.70;5.97;;;28.80;99.90;;;;;;5014084;28;20076;-45
2022/07/08 01:26:02;;;;;;;7.53;5.43;;;28.80;99.90;;;;;;5014016;28;20053;-45
2022/07/08 01:28:27;;;;;;;7.78;6.28;;;28.80;99.90;;;;;;5013837;28;20045;-46
2022/07/08 01:30:53;;;;;;;7.60;5.40;;;28.70;99.90;;;;;;5014286;28;20368;-46
2022/07/08 01:33:19;;;;;;;6.82;5.35;;;28.80;99.90;;;;;;5013965;28;20076;-45
2022/07/08 01:35:45;;;;;;;7.85;5.80;;;28.80;99.90;;;;;;5013473;28;20026;-46
2022/07/08 01:38:11;;;;;;;5.50;4.50;;;28.80;99.90;;;;;;5013731;28;20388;-45
2022/07/08 01:40:37;;;;;;;6.63;4.57;;;28.70;99.90;;;;;;5013736;28;20030;-45
2022/07/08 01:43:03;;;;;;;7.72;5.22;;;28.80;99.90;;;;;;5013672;28;20056;-45
2022/07/08 01:45:28;;;;;;;5.82;4.70;;;28.80;99.90;;;;;;5013959;28;20352;-45
2022/07/08 01:47:54;;;;;;;7.90;6.13;;;28.80;99.90;;;;;;5013777;28;20076;-45
2022/07/08 01:50:20;;;;;;;6.20;5.07;;;28.80;99.90;;;;;;5013599;28;20033;-45
2022/07/08 01:52:46;;;;;;;8.02;5.40;;;28.80;99.90;;;;;;5013559;28;20029;-45
2022/07/08 01:55:12;;;;;;;5.97;4.95;;;28.70;99.90;;;;;;5013672;28;20030;-46
2022/07/08 01:57:37;;;;;;;5.88;5.03;;;28.80;99.90;;;;;;5013454;28;20108;-46
2022/07/08 02:00:05;;;;;;;6.00;5.22;;;28.70;99.90;;;;;;5014013;28;20049;-45
2022/07/08 02:02:31;;;;;;;5.13;4.22;;;28.70;99.90;;;;;;5013103;28;20116;-45
2022/07/08 02:04:57;;;;;;;9.23;5.45;;;28.70;99.90;;;;;;5013483;28;20467;-46
2022/07/08 02:07:23;;;;;;;6.28;4.90;;;28.70;99.90;;;;;;5013373;28;20030;-46
2022/07/08 02:09:49;;;;;;;6.28;4.97;;;28.70;99.90;;;;;;5013209;28;20034;-46
2022/07/08 02:12:20;;;;;;;5.00;4.32;;;28.70;99.90;;;;;;5013252;28;20498;-45
2022/07/08 02:14:54;;;;;;;4.82;4.00;;;28.70;99.90;;;;;;5013086;28;20033;-45
2022/07/08 02:17:22;;;;;;;5.97;4.80;;;28.70;99.90;;;;;;5013087;28;20041;-46
2022/07/08 02:19:50;;;;;;;6.10;4.97;;;28.70;99.90;;;;;;5013111;28;20113;-45
2022/07/08 02:22:16;;;;;;;5.85;4.68;;;28.70;99.90;;;;;;5013040;28;20348;-45
2022/07/08 02:24:42;;;;;;;6.35;5.10;;;28.70;99.90;;;;;;5012972;28;20454;-45
2022/07/08 02:27:08;;;;;;;5.15;4.45;;;28.70;99.90;;;;;;5012974;28;20026;-45
2022/07/08 02:29:34;;;;;;;5.53;4.40;;;28.70;99.90;;;;;;5012692;28;20064;-45
2022/07/08 02:32:00;;;;;;;5.72;4.40;;;28.70;99.90;;;;;;5013034;28;20053;-45
2022/07/08 02:34:26;;;;;;;6.47;4.60;;;28.70;99.90;;;;;;5012807;28;20095;-45
2022/07/08 02:36:52;;;;;;;6.38;3.97;;;28.70;99.90;;;;;;5012820;28;20058;-45
2022/07/08 02:39:18;;;;;;;5.78;4.97;;;28.70;99.90;;;;;;5012672;28;20076;-45
2022/07/08 02:41:44;;;;;;;5.38;3.92;;;28.70;99.90;;;;;;5012594;28;20068;-45
2022/07/08 02:44:10;;;;;;;5.78;4.38;;;28.70;99.90;;;;;;5012591;28;20037;-45
2022/07/08 02:46:36;;;;;;;5.10;4.03;;;28.70;99.90;;;;;;5011613;28;20520;-45
2022/07/08 02:49:02;;;;;;;6.53;4.70;;;28.70;99.90;;;;;;5012550;28;20033;-45
2022/07/08 02:51:28;;;;;;;5.97;4.18;;;28.70;99.90;;;;;;5012558;28;20033;-45
2022/07/08 02:53:54;;;;;;;5.93;4.32;;;28.60;99.90;;;;;;5012476;28;20033;-45
2022/07/08 02:56:20;;;;;;;4.80;3.92;;;28.70;99.90;;;;;;5012291;28;20024;-46
2022/07/08 02:58:45;;;;;;;5.97;4.60;;;28.70;99.90;;;;;;5012361;28;20108;-45
2022/07/08 03:01:11;;;;;;;5.70;4.40;;;28.60;99.90;;;;;;5012647;28;20403;-45
2022/07/08 03:03:37;;;;;;;5.45;3.97;;;28.70;99.90;;;;;;5012142;28;20038;-45
2022/07/08 03:06:03;;;;;;;5.72;4.25;;;28.70;99.90;;;;;;5012211;28;20025;-45
2022/07/08 03:08:29;;;;;;;4.90;4.05;;;28.70;99.90;;;;;;5012315;28;20034;-45
2022/07/08 03:10:55;;;;;;;5.82;4.07;;;28.70;99.90;;;;;;5012127;28;20502;-46
2022/07/08 03:13:21;;;;;;;4.90;4.40;;;28.60;99.90;;;;;;5012172;28;20076;-45
2022/07/08 03:15:46;;;;;;;6.00;4.28;;;28.70;99.90;;;;;;5012070;28;20022;-45
2022/07/08 03:18:12;;;;;;;5.20;4.18;;;28.60;99.90;;;;;;5012021;28;20506;-45
2022/07/08 03:20:38;;;;;;;5.45;4.32;;;28.60;99.90;;;;;;5012032;28;20113;-45
2022/07/08 03:23:04;;;;;;;4.30;3.88;;;28.60;99.90;;;;;;5012018;28;20101;-45
2022/07/08 03:25:30;;;;;;;5.57;4.75;;;28.60;99.90;;;;;;5012081;28;20022;-45
2022/07/08 03:27:56;;;;;;;4.72;3.88;;;28.60;99.90;;;;;;5011828;28;20018;-45
2022/07/08 03:30:22;;;;;;;5.18;3.50;;;28.60;99.90;;;;;;5012057;28;20383;-45
2022/07/08 03:32:48;;;;;;;4.75;4.22;;;28.60;99.90;;;;;;5011701;28;20034;-45
2022/07/08 03:35:13;;;;;;;5.30;3.42;;;28.60;99.90;;;;;;5011749;28;20037;-45
2022/07/08 03:37:43;;;;;;;4.22;3.60;;;28.60;99.90;;;;;;5011574;28;20337;-45
2022/07/08 03:42:55;;;;;;;4.20;3.47;;;28.60;99.90;;;;;;5011922;28;20124;-45
2022/07/08 03:45:21;;;;;;;6.55;3.88;;;28.60;99.90;;;;;;5011547;28;20117;-45
2022/07/08 03:47:46;;;;;;;4.22;3.47;;;28.60;99.90;;;;;;5011402;28;20061;-45
2022/07/08 03:50:13;;;;;;;4.28;3.83;;;28.60;99.90;;;;;;5011470;28;20033;-45
2022/07/08 03:52:38;;;;;;;4.00;3.58;;;28.60;99.90;;;;;;5011519;28;20037;-45
2022/07/08 03:55:05;;;;;;;6.13;3.70;;;28.60;99.90;;;;;;5011544;28;20049;-45
2022/07/08 03:57:31;;;;;;;5.32;3.28;;;28.60;99.90;;;;;;5011153;28;20026;-45
2022/07/08 03:59:57;;;;;;;4.45;3.53;;;28.60;99.90;;;;;;5016799;23;20050;-44
2022/07/08 04:02:23;;;;;;;5.38;3.70;;;28.60;99.90;;;;;;4972906;28;20022;-44
2022/07/08 04:04:49;;;;;;;5.28;3.22;;;28.60;99.90;;;;;;4972368;28;20095;-46
2022/07/08 04:07:15;;;;;;;3.38;2.95;;;28.60;99.90;;;;;;4972362;28;20110;-44
2022/07/08 04:09:41;;;;;;;4.05;3.53;;;28.60;99.90;;;;;;4972135;28;20489;-44
2022/07/08 04:12:08;;;;;;;4.90;3.47;;;28.60;99.90;;;;;;4972232;28;20077;-44
2022/07/08 04:14:33;;;;;;;5.18;2.80;;;28.60;99.90;;;;;;4972442;28;20142;-44
2022/07/08 04:17:02;;;;;;;5.25;3.55;;;28.60;99.90;;;;;;4972090;28;20023;-44
2022/07/08 04:19:28;;;;;;;4.43;3.38;;;28.50;99.90;;;;;;4972259;28;20085;-44
2022/07/08 04:21:54;;;;;;;5.03;3.67;;;28.60;99.90;;;;;;4972123;28;20019;-43
2022/07/08 04:24:19;;;;;;;4.55;3.40;;;28.60;99.90;;;;;;4972095;28;20029;-45
2022/07/08 04:26:45;;;;;;;4.57;3.78;;;28.60;99.90;;;;;;4972005;28;20027;-44
2022/07/08 04:29:11;;;;;;;4.60;3.55;;;28.60;99.90;;;;;;4971758;28;20038;-45
2022/07/08 04:31:37;;;;;;;4.10;3.05;;;28.60;99.90;;;;;;4972079;28;20066;-45
2022/07/08 04:34:02;;;;;;;4.10;3.42;;;28.60;99.90;;;;;;4972136;28;20050;-45
2022/07/08 04:36:28;;;;;;;3.58;3.00;;;28.60;99.90;;;;;;4972012;28;20055;-45
2022/07/08 04:38:54;;;;;;;3.72;3.28;;;28.60;99.90;;;;;;4971831;28;20038;-45
2022/07/08 04:41:20;;;;;;;5.05;3.40;;;28.50;99.90;;;;;;4972004;28;20027;-45
2022/07/08 04:43:46;;;;;;;3.90;3.17;;;28.50;99.90;;;;;;4972013;28;20035;-46
2022/07/08 04:46:12;;;;;;;5.38;3.28;;;28.50;99.90;;;;;;4971939;28;20053;-47
2022/07/08 04:48:39;;;;;;;3.07;2.60;;;28.50;99.90;;;;;;4971892;28;20448;-46
2022/07/08 04:51:05;;;;;;;4.50;3.15;;;28.50;99.90;;;;;;4972065;28;20035;-46
2022/07/08 04:53:31;;;;;;;5.63;3.30;;;28.50;99.90;;;;;;4971794;28;20037;-46
2022/07/08 04:55:57;;;;;;;5.80;3.58;;;28.50;99.90;;;;;;4971970;28;20022;-46
2022/07/08 04:58:22;;;;;;;3.72;3.38;;;28.50;99.90;;;;;;4971882;28;20033;-46
2022/07/08 05:00:48;;;;;;;3.72;2.90;;;28.50;99.90;;;;;;4971727;28;20125;-46
2022/07/08 05:03:14;;;;;;;4.10;3.15;;;28.50;99.90;;;;;;4954424;28;20023;-45
2022/07/08 05:05:40;;;;;;;3.17;2.80;;;28.50;99.90;;;;;;4971706;28;20019;-47
2022/07/08 05:08:06;;;;;;;6.25;3.70;;;28.50;99.90;;;;;;4971861;28;20053;-45
2022/07/08 05:10:32;;;;;;;3.30;2.65;;;28.50;99.90;;;;;;4956236;28;20052;-45
2022/07/08 05:12:58;;;;;;;4.05;3.22;;;28.50;99.90;;;;;;4975251;28;20473;-46
2022/07/08 05:15:25;;;;;;;4.68;3.40;;;28.50;99.90;;;;;;4975223;28;20031;-46
2022/07/08 05:17:52;;;;;;;4.75;3.30;;;28.50;99.90;;;;;;4975174;28;20472;-46
2022/07/08 05:20:18;;;;;;;3.17;2.88;;;28.50;99.90;;;;;;4975118;28;20404;-46
2022/07/08 05:22:44;;;;;;;4.20;3.38;;;28.50;99.90;;;;;;4975188;28;20041;-46
2022/07/08 05:25:10;;;;;;;4.75;3.00;;;28.50;99.90;;;;;;4975053;28;20042;-46
2022/07/08 05:27:36;;;;;;;4.43;3.03;;;28.50;99.90;;;;;;4975098;28;20022;-47
2022/07/08 05:30:04;;;;;;;3.42;2.85;;;28.50;99.90;;;;;;4975026;28;20026;-45
2022/07/08 05:32:30;;;;;;;3.97;3.03;;;28.50;99.90;;;;;;4974860;28;20690;-46
2022/07/08 05:34:55;;;;;;;4.32;3.10;;;28.50;99.90;;;;;;4974900;28;20113;-45
2022/07/08 05:37:21;;;;;;;4.63;3.25;;;28.50;99.90;;;;;;4974800;28;20054;-46
2022/07/08 05:39:47;;;;;;;4.03;3.13;;;28.50;99.90;;;;;;4974636;28;20034;-45
2022/07/08 05:42:13;;;;;;;4.57;3.13;;;28.50;99.90;;;;;;4974951;28;20030;-46
2022/07/08 05:44:39;;;;;;;4.85;3.25;;;28.50;99.90;;;;;;4974786;28;20434;-46
2022/07/08 05:47:07;;;;;;;4.63;3.42;;;28.50;99.90;;;;;;4974618;28;20029;-44
2022/07/08 05:49:34;;;;;;;3.67;2.80;;;28.50;99.90;;;;;;4974706;28;20444;-46
2022/07/08 05:52:00;;;;;;;5.45;3.40;;;28.50;99.90;;;;;;4974673;28;20027;-46
2022/07/08 05:54:27;;;;;;;4.63;3.20;;;28.50;99.90;;;;;;4974544;28;20042;-46
2022/07/08 05:56:52;;;;;;;4.13;3.08;;;28.50;99.90;;;;;;4974417;28;20142;-44
2022/07/08 05:59:18;;;;;;;4.57;3.10;;;28.50;99.90;;;;;;4956935;28;20493;-45
2022/07/08 06:01:44;;;;;;;3.88;3.03;;;28.50;99.90;;;;;;4974212;28;20112;-46
2022/07/08 06:04:10;;;;;;;3.55;3.10;;;28.50;99.90;;;;;;4974432;28;20033;-46
2022/07/08 06:06:35;;;;;;;5.07;3.50;;;28.50;99.90;;;;;;4957060;28;20038;-46
2022/07/08 06:09:01;;;;;;;3.28;2.78;;;28.50;99.90;;;;;;4973969;28;20476;-45
2022/07/08 06:11:27;;;;;;;4.68;3.10;;;28.50;99.90;;;;;;4974142;28;20109;-47
2022/07/08 06:13:53;;;;;;;3.70;2.88;;;28.50;99.90;;;;;;4974050;28;20491;-46
2022/07/08 06:16:20;;;;;;;3.63;2.88;;;28.50;99.90;;;;;;4973965;28;20054;-46
2022/07/08 06:18:46;;;;;;;4.33;3.30;;;28.50;99.90;;;;;;4974108;28;20069;-46
2022/07/08 06:21:12;;;;;;;4.93;3.45;;;28.50;99.90;;;;;;4973953;28;20288;-46
2022/07/08 06:23:38;;;;;;;4.97;3.03;;;28.50;99.90;;;;;;4974055;28;20030;-46
2022/07/08 06:26:04;;;;;;;5.30;3.40;;;28.50;99.90;;;;;;4974083;28;20033;-46
2022/07/08 06:28:29;;;;;;;4.65;3.10;;;28.50;99.90;;;;;;4973931;28;20473;-46
2022/07/08 06:30:55;;;;;;;5.63;3.00;;;28.50;99.90;;;;;;4956468;28;20043;-45
2022/07/08 06:33:21;;;;;;;4.78;3.10;;;28.50;99.90;;;;;;4974005;28;20053;-45
2022/07/08 06:35:47;;;;;;;4.03;3.08;;;28.50;99.90;;;;;;4973973;28;20102;-45
2022/07/08 06:38:13;;;;;;;4.63;3.58;;;28.50;99.90;;;;;;4973983;28;20030;-46
2022/07/08 06:40:39;;;;;;;4.82;3.10;;;28.50;99.90;;;;;;4973725;28;20023;-45
2022/07/08 06:43:05;;;;;;;4.38;3.17;;;28.50;99.90;;;;;;4973640;28;20038;-46
2022/07/08 06:45:32;;;;;;;4.63;3.13;;;28.60;99.90;;;;;;4973531;28;20034;-46
2022/07/08 06:47:59;;;;;;;4.57;3.00;;;28.50;99.90;;;;;;4973465;28;20517;-46
2022/07/08 06:50:25;;;;;;;5.03;2.95;;;28.60;99.90;;;;;;4973530;28;20110;-46
2022/07/08 06:52:50;;;;;;;5.95;2.92;;;28.60;99.90;;;;;;4973434;28;20101;-46
2022/07/08 06:55:16;;;;;;;4.78;2.90;;;28.60;99.90;;;;;;4973372;28;20054;-46
2022/07/08 06:57:42;;;;;;;4.32;3.22;;;28.60;99.90;;;;;;4956178;28;20027;-46
2022/07/08 07:00:08;;;;;;;4.45;3.30;;;28.60;99.90;;;;;;4973003;28;20046;-46
2022/07/08 07:02:34;;;;;;;5.22;3.78;;;28.60;99.90;;;;;;4973326;28;20030;-45
2022/07/08 07:05:00;;;;;;;4.43;3.30;;;28.60;99.90;;;;;;4973014;28;20425;-46
2022/07/08 07:07:27;;;;;;;3.45;2.85;;;28.60;99.90;;;;;;4973083;28;20029;-46
2022/07/08 07:09:53;;;;;;;4.30;3.43;;;28.60;99.90;;;;;;4973201;28;20122;-45
2022/07/08 07:12:19;;;;;;;4.00;2.95;;;28.60;99.90;;;;;;4973052;28;20038;-45
2022/07/08 07:14:45;;;;;;;3.90;3.13;;;28.60;99.90;;;;;;4973161;28;20026;-46
2022/07/08 07:17:11;;;;;;;4.97;3.72;;;28.60;99.90;;;;;;4973032;28;20023;-46
2022/07/08 07:19:37;;;;;;;5.30;3.40;;;28.60;99.90;;;;;;4973233;28;20062;-46
2022/07/08 07:22:03;;;;;;;5.18;3.20;;;28.60;99.90;;;;;;4972983;28;20541;-46
2022/07/08 07:24:29;;;;;;;4.47;3.50;;;28.60;99.90;;;;;;4973029;28;20061;-46
2022/07/08 07:26:55;;;;;;;3.90;3.25;;;28.60;99.90;;;;;;4972808;28;20178;-47
2022/07/08 07:29:21;;;;;;;4.47;3.65;;;28.60;99.90;;;;;;4972562;28;20424;-46
2022/07/08 07:31:47;;;;;;;3.83;2.80;;;28.60;99.90;;;;;;4955273;28;20109;-46
2022/07/08 07:34:13;;;;;;;4.65;3.15;;;28.60;99.90;;;;;;4972346;28;20037;-47
2022/07/08 07:36:38;;;;;;;4.45;3.45;;;28.60;99.90;;;;;;4955560;28;20023;-46
2022/07/08 07:39:04;;;;;;;4.97;3.60;;;28.60;99.90;;;;;;4972627;28;20023;-46
2022/07/08 07:41:30;;;;;;;4.25;3.22;;;28.70;99.90;;;;;;4972527;28;20053;-46
2022/07/08 07:43:56;;;;;;;6.32;3.45;;;28.60;99.90;;;;;;4972691;28;20034;-46
2022/07/08 07:46:21;;;;;;;8.18;3.50;;;28.60;99.90;;;;;;4972590;28;20039;-47
2022/07/08 07:48:47;;;;;;;4.10;3.58;;;28.70;99.90;;;;;;4972741;28;20039;-46
2022/07/08 07:51:13;;;;;;;3.72;3.05;;;28.70;99.90;;;;;;4972680;28;20512;-46
2022/07/08 07:53:39;;;;;;;5.00;3.58;;;28.70;99.90;;;;;;4972346;28;20027;-45
2022/07/08 07:56:05;;;;;;;3.85;3.08;;;28.70;99.90;;;;;;4972464;28;20464;-46
2022/07/08 07:58:31;;;;;;;5.35;3.60;;;28.70;99.90;;;;;;4972348;28;20112;-46
2022/07/08 08:00:56;;;;;;;5.40;3.70;;;28.70;99.90;;;;;;4972178;28;20094;-46
2022/07/08 08:03:22;;;;;;;6.95;3.70;;;28.70;99.90;;;;;;4972497;28;20030;-46
2022/07/08 08:05:48;;;;;;;6.20;3.45;;;28.70;99.90;;;;;;4972372;28;20025;-45
2022/07/08 08:08:13;;;;;;;5.03;3.30;;;28.80;99.90;;;;;;4972415;28;20062;-46
2022/07/08 08:10:39;;;;;;;5.32;3.67;;;28.80;99.90;;;;;;4972479;28;20055;-45
2022/07/08 08:13:05;;;;;;;4.38;3.25;;;28.80;99.90;;;;;;4972148;28;20023;-45
2022/07/08 08:15:32;;;;;;;5.15;3.22;;;28.70;99.90;;;;;;4972303;28;20033;-45
2022/07/08 08:17:59;;;;;;;8.45;4.22;;;28.70;99.90;;;;;;4972275;28;20089;-46
2022/07/08 08:20:28;;;;;;;5.65;3.70;;;28.80;99.90;;;;;;4972189;28;20023;-45
2022/07/08 08:22:54;;;;;;;5.65;3.92;;;28.80;99.90;;;;;;4972187;28;20097;-45
2022/07/08 08:25:20;;;;;;;4.28;3.75;;;28.80;99.90;;;;;;4972282;28;20023;-45
2022/07/08 08:27:47;;;;;;;4.78;3.25;;;28.80;99.90;;;;;;4972581;28;20062;-46
2022/07/08 08:30:15;;;;;;;4.22;3.30;;;28.80;99.90;;;;;;4972251;28;20058;-46
2022/07/08 08:32:41;;;;;;;4.68;3.25;;;28.80;99.90;;;;;;4972018;28;20033;-46
2022/07/08 08:35:07;;;;;;;5.45;3.70;;;28.80;99.90;;;;;;4971881;28;20041;-45
2022/07/08 08:37:33;;;;;;;5.10;3.65;;;28.80;99.90;;;;;;4971964;28;20027;-46
2022/07/08 08:40:03;;;;;;;4.75;3.63;;;28.80;99.90;;;;;;4971929;28;20058;-45
2022/07/08 08:42:31;;;;;;;4.07;3.10;;;28.80;99.90;;;;;;4972085;28;20026;-46
2022/07/08 08:44:58;;;;;;;4.70;3.22;;;28.80;99.90;;;;;;4974332;28;20027;-46
2022/07/08 08:47:28;;;;;;;4.70;3.95;;;28.80;99.90;;;;;;4975748;28;20477;-46
2022/07/08 08:49:56;;;;;;;6.10;3.70;;;28.80;99.90;;;;;;4975654;28;20046;-46
2022/07/08 08:52:23;;;;;;;4.88;3.72;;;28.80;99.90;;;;;;4975593;28;20027;-46
2022/07/08 08:54:51;;;;;;;5.57;3.42;;;28.80;99.90;;;;;;4975827;28;20031;-45
2022/07/08 08:57:20;;;;;;;6.90;3.55;;;28.80;99.90;;;;;;4975713;28;20034;-44
2022/07/08 08:59:46;;;;;;;4.25;3.33;;;28.80;99.90;;;;;;4975310;28;20175;-46
2022/07/08 09:02:12;;;;;;;5.78;3.40;;;28.80;99.90;;;;;;4975555;28;20027;-46
2022/07/08 09:04:38;;;;;;;6.50;3.88;;;28.90;99.90;;;;;;4975277;28;20023;-46
2022/07/08 09:07:05;;;;;;;5.22;3.65;;;28.80;99.90;;;;;;4975439;28;20037;-46
2022/07/08 09:09:30;;;;;;;5.75;4.47;;;28.80;99.90;;;;;;4975348;28;20038;-46
2022/07/08 09:11:56;;;;;;;5.00;3.92;;;28.80;99.90;;;;;;4975363;28;20436;-46
2022/07/08 09:14:23;;;;;;;4.55;3.38;;;28.90;99.90;;;;;;4975245;28;20037;-46
2022/07/08 09:17:17;;;;;;;5.93;4.13;;;28.80;99.90;;;;;;4975437;28;20053;-47
2022/07/08 09:19:44;;;;;;;5.72;3.92;;;28.80;99.90;;;;;;4975106;28;20135;-46
2022/07/08 09:22:10;;;;;;;4.90;3.80;;;28.80;99.90;;;;;;4974945;28;20023;-46
2022/07/08 09:24:38;;;;;;;5.90;4.25;;;28.90;99.90;;;;;;4957452;28;20031;-46
2022/07/08 09:27:11;;;;;;;5.75;3.63;;;28.90;99.90;;;;;;4974893;28;20063;-46
2022/07/08 09:29:55;;;;;;;5.72;4.15;;;28.80;99.90;;;;;;4974691;28;20093;-46
2022/07/08 09:32:21;;;;;;;4.85;3.90;;;28.90;99.90;;;;;;4959917;28;20021;-46
2022/07/08 09:34:46;;;;;;;5.45;4.05;;;28.90;99.90;;;;;;4957525;28;20103;-46
2022/07/08 09:37:15;;;;;;;5.82;4.15;;;28.90;99.90;;;;;;4974679;28;20715;-46
2022/07/08 09:39:44;;;;;;;4.80;3.80;;;28.90;99.90;;;;;;4974614;28;20030;-46
2022/07/08 09:42:13;;;;;;;5.20;3.42;;;28.90;99.90;;;;;;4974537;28;20030;-46
2022/07/08 09:44:39;;;;;;;5.30;4.28;;;28.90;99.90;;;;;;4974434;28;20442;-46
2022/07/08 09:47:10;;;;;;;5.50;3.80;;;28.90;99.90;;;;;;4974577;28;20026;-46
2022/07/08 09:49:42;;;;;;;4.75;4.00;;;28.90;99.90;;;;;;4974517;28;20054;-46
2022/07/08 09:52:09;;;;;;;5.82;4.10;;;28.90;99.90;;;;;;4974579;28;20023;-45
2022/07/08 09:54:35;;;;;;;;;;;28.90;99.90;;;;;;4974994;28;20023;-46
2022/07/08 09:57:04;;;;;;;4.80;4.13;;;28.90;99.90;;;;;;4973976;28;20360;-46
2022/07/08 09:59:30;;;;;;;4.40;3.90;;;28.90;99.90;;;;;;4974262;28;20019;-45
2022/07/08 10:01:57;;;;;;;4.45;3.95;;;28.90;99.90;;;;;;4974198;28;20038;-46
2022/07/08 10:04:26;;;;;;;4.80;3.70;;;28.90;99.90;;;;;;4974344;28;20058;-46
2022/07/08 10:06:54;;;;;;;6.32;4.07;;;28.90;99.90;;;;;;4974501;28;20389;-45
2022/07/08 10:09:21;;;;;;;4.82;3.50;;;28.90;99.90;;;;;;4974371;28;20042;-46
2022/07/08 10:11:48;;;;;;;4.72;3.78;;;28.90;99.90;;;;;;4956875;28;20038;-45
2022/07/08 10:14:17;;;;;;;3.83;3.42;;;28.90;99.90;;;;;;4973803;28;20532;-46
2022/07/08 10:16:45;;;;;;;5.20;3.75;;;29.00;99.90;;;;;;4974167;28;20386;-46
2022/07/08 10:19:35;;;;;;;5.80;3.65;;;29.00;99.90;;;;;;4974274;28;20470;-46
2022/07/08 10:22:02;;;;;;;5.15;4.22;;;29.00;99.90;;;;;;4959172;28;20472;-46
2022/07/08 10:24:32;;;;;;;6.82;4.07;;;29.00;99.90;;;;;;4973904;28;20520;-46
2022/07/08 10:27:00;;;;;;;5.13;3.88;;;29.00;99.90;;;;;;4973857;28;20027;-49
2022/07/08 10:29:31;;;;;;;4.93;3.75;;;29.00;99.90;;;;;;4973644;28;20069;-45
2022/07/08 10:31:59;;;;;;;5.00;3.85;;;29.00;99.90;;;;;;4973851;28;20078;-46
2022/07/08 10:34:35;;;;;;;6.28;4.15;;;29.00;99.90;;;;;;4974030;28;20034;-46
2022/07/08 10:37:03;;;;;;;6.53;4.50;;;29.00;99.90;;;;;;4973703;28;20023;-46
2022/07/08 10:39:29;;;;;;;6.47;3.60;;;29.00;99.90;;;;;;4973715;28;20484;-46
2022/07/08 10:42:09;;;;;;;7.18;4.45;;;29.00;99.90;;;;;;4974120;28;20070;-45
2022/07/08 10:44:44;;;;;;;5.15;3.80;;;29.00;99.90;;;;;;4973720;28;20374;-45
2022/07/08 10:47:10;;;;;;;6.03;3.63;;;29.00;99.90;;;;;;4973650;28;20023;-46
2022/07/08 10:49:46;;;;;;;5.50;3.83;;;29.00;99.90;;;;;;4973358;28;20042;-45
2022/07/08 10:52:13;;;;;;;3.80;3.23;;;29.00;99.90;;;;;;4956056;28;20521;-46
2022/07/08 10:54:39;;;;;;;6.93;3.65;;;29.00;99.90;;;;;;4973445;28;20264;-46
2022/07/08 10:57:26;;;;;;;5.22;3.58;;;29.00;99.90;;;;;;4973260;28;20046;-46
2022/07/08 11:00:05;;;;;;;5.25;3.55;;;29.00;99.90;;;;;;4973281;28;20128;-46
2022/07/08 11:02:31;;;;;;;5.50;4.50;;;29.00;99.90;;;;;;4973274;28;20027;-52
2022/07/08 11:04:57;;;;;;;4.85;3.72;;;29.00;99.90;;;;;;4973199;28;20022;-45
2022/07/08 11:07:26;;;;;;;5.47;3.72;;;29.00;99.90;;;;;;4972365;28;20019;-45
2022/07/08 11:09:54;;;;;;;6.15;4.15;;;29.10;99.90;;;;;;4972963;28;20045;-46
2022/07/08 11:12:25;;;;;;;6.43;4.55;;;29.10;99.90;;;;;;4972881;28;20023;-45
2022/07/08 11:14:55;;;;;;;5.18;3.80;;;29.10;99.90;;;;;;4973014;28;20118;-46
2022/07/08 11:17:22;;;;;;;4.75;3.63;;;29.10;99.90;;;;;;4973056;28;20058;-45
2022/07/08 11:19:50;;;;;;;5.20;3.75;;;29.10;99.90;;;;;;4972922;28;20031;-45
2022/07/08 11:22:16;;;;;;;7.15;3.80;;;29.10;99.90;;;;;;4972945;28;20038;-46
2022/07/08 11:24:46;;;;;;;4.93;3.80;;;29.10;99.90;;;;;;4972911;28;20102;-45
2022/07/08 11:27:13;;;;;;;4.90;3.95;;;29.10;99.90;;;;;;4972712;28;20030;-45
2022/07/08 11:29:49;;;;;;;8.00;5.07;;;29.10;99.90;;;;;;4972535;28;20492;-45
2022/07/08 11:32:18;;;;;;;5.80;3.85;;;29.10;99.90;;;;;;4972947;28;20101;-46
2022/07/08 11:34:45;;;;;;;6.53;3.83;;;29.10;99.90;;;;;;4972763;28;20034;-45
2022/07/08 11:37:11;;;;;;;6.28;4.57;;;29.20;99.90;;;;;;4972569;28;20090;-46
2022/07/08 11:39:37;;;;;;;4.65;3.60;;;29.20;99.90;;;;;;4972463;28;20032;-46
2022/07/08 11:42:04;;;;;;;5.25;4.43;;;29.20;99.90;;;;;;4972611;28;20027;-46
2022/07/08 11:44:30;;;;;;;6.28;4.63;;;29.20;99.90;;;;;;4972413;28;20385;-46
2022/07/08 11:46:56;;;;;;;5.25;3.50;;;29.20;99.90;;;;;;4972488;28;20034;-46
2022/07/08 11:49:23;;;;;;;4.60;3.50;;;29.20;99.90;;;;;;4955345;28;20401;-46
2022/07/08 11:51:50;;;;;;;5.93;3.72;;;29.20;99.90;;;;;;4972441;28;20027;-46
2022/07/08 11:54:18;;;;;;;5.15;3.72;;;29.20;99.90;;;;;;4972311;28;20041;-46
2022/07/08 11:56:44;;;;;;;6.10;4.15;;;29.20;99.90;;;;;;4972337;28;20556;-46
2022/07/08 11:59:10;;;;;;;4.18;3.53;;;29.20;99.90;;;;;;4972225;28;20118;-45
2022/07/08 12:01:36;;;;;;;5.40;3.60;;;29.20;99.90;;;;;;4972064;28;20122;-45
2022/07/08 12:04:06;;;;;;;4.97;3.67;;;29.20;99.90;;;;;;4972168;28;20027;-45
2022/07/08 12:06:33;;;;;;;5.25;3.53;;;29.20;99.90;;;;;;4972233;28;20023;-46
2022/07/08 12:09:08;;;;;;;5.47;4.47;;;29.20;99.90;;;;;;4972408;28;20041;-46
2022/07/08 12:11:40;;;;;;;5.07;4.00;;;29.20;99.90;;;;;;4972066;28;20063;-46
2022/07/08 12:14:08;;;;;;;5.35;3.45;;;29.30;99.90;;;;;;4972486;28;20476;-47
2022/07/08 12:16:41;;;;;;;6.28;4.22;;;29.30;99.90;;;;;;4972191;28;20038;-46
2022/07/08 12:19:23;;;;;;;5.45;4.00;;;29.30;99.90;;;;;;4973221;28;20023;-47
2022/07/08 12:21:49;;;;;;;8.15;4.57;;;29.30;99.90;;;;;;4976203;28;20082;-46
2022/07/08 12:24:15;;;;;;;5.15;4.60;;;29.30;99.90;;;;;;4976088;28;20054;-46
2022/07/08 12:26:54;;;;;;;9.03;4.57;;;29.30;99.90;;;;;;4976091;28;20278;-46
2022/07/08 12:29:20;;;;;;;5.80;4.10;;;29.30;99.90;;;;;;4975974;28;20066;-46
2022/07/08 12:31:46;;;;;;;5.72;3.83;;;29.30;99.90;;;;;;4976056;28;20069;-47
2022/07/08 12:34:17;;;;;;;5.70;3.97;;;29.30;99.90;;;;;;4958722;28;20035;-46
2022/07/08 12:36:42;;;;;;;5.70;3.72;;;29.30;99.90;;;;;;4975882;28;20030;-47
2022/07/08 12:39:16;;;;;;;4.28;3.55;;;29.30;99.90;;;;;;4975730;28;20027;-46
2022/07/08 12:41:45;;;;;;;5.78;3.65;;;29.40;99.90;;;;;;4975868;28;20101;-46
2022/07/08 12:44:38;;;;;;;6.95;3.53;;;29.40;99.90;;;;;;4975750;28;20023;-47
2022/07/08 12:47:05;;;;;;;6.20;3.50;;;29.40;99.90;;;;;;4975759;28;20489;-47
2022/07/08 12:49:32;;;;;;;5.72;3.75;;;29.40;99.90;;;;;;4976100;28;20042;-46